sensor_id;sensor_type;location;lat;lon;timestamp;pressure;altitude;pressure_sealevel;temperature;humidity
73453;BME280;61687;56.232;43.854;2023-05-25T12:21:52;100632.72;;;40.43;20.82
73453;BME280;61687;56.232;43.854;2023-05-25T12:24:18;100619.47;;;40.63;20.49
73453;BME280;61687;56.232;43.854;2023-05-25T12:26:48;100630.22;;;40.47;20.90
73453;BME280;61687;56.232;43.854;2023-05-25T12:29:15;100617.00;;;40.37;21.59
73453;BME280;61687;56.232;43.854;2023-05-25T12:31:41;100610.72;;;39.70;22.20
73453;BME280;61687;56.232;43.854;2023-05-25T12:34:12;100614.13;;;39.24;22.03
73453;BME280;61687;56.232;43.854;2023-05-25T12:36:52;100618.69;;;38.90;22.38
73453;BME280;61687;56.232;43.854;2023-05-25T12:41:58;100612.25;;;38.69;21.76
73453;BME280;61687;56.232;43.854;2023-05-25T12:44:32;100606.72;;;38.71;22.57
73453;BME280;61687;56.232;43.854;2023-05-25T12:47:14;100607.31;;;39.35;21.49
73453;BME280;61687;56.232;43.854;2023-05-25T12:49:48;100599.72;;;40.13;21.06
73453;BME280;61687;56.232;43.854;2023-05-25T12:52:36;100598.78;;;40.88;20.39
73453;BME280;61687;56.232;43.854;2023-05-25T12:55:26;100600.25;;;41.20;19.83
73453;BME280;61687;56.232;43.854;2023-05-25T12:57:54;100591.91;;;41.81;19.12
73453;BME280;61687;56.232;43.854;2023-05-25T13:00:25;100590.78;;;42.10;19.21
73453;BME280;61687;56.232;43.854;2023-05-25T13:02:52;100586.22;;;41.99;19.31
73453;BME280;61687;56.232;43.854;2023-05-25T13:05:23;100574.16;;;42.26;19.51
73453;BME280;61687;56.232;43.854;2023-05-25T13:07:49;100575.00;;;42.61;18.87
73453;BME280;61687;56.232;43.854;2023-05-25T13:10:16;100569.13;;;42.52;18.75
73453;BME280;61687;56.232;43.854;2023-05-25T13:12:46;100571.13;;;42.67;18.51
73453;BME280;61687;56.232;43.854;2023-05-25T13:15:15;100562.03;;;42.70;18.90
73453;BME280;61687;56.232;43.854;2023-05-25T13:17:42;100565.59;;;42.96;19.41
73453;BME280;61687;56.232;43.854;2023-05-25T13:20:19;100567.78;;;43.23;18.31
73453;BME280;61687;56.232;43.854;2023-05-25T13:22:47;100559.59;;;43.02;18.10
73453;BME280;61687;56.232;43.854;2023-05-25T13:25:13;100558.63;;;43.17;18.34
73453;BME280;61687;56.232;43.854;2023-05-25T13:27:45;100556.84;;;43.39;18.83
73453;BME280;61687;56.232;43.854;2023-05-25T13:30:12;100546.19;;;43.32;17.62
73453;BME280;61687;56.232;43.854;2023-05-25T13:32:38;100553.00;;;43.37;17.99
73453;BME280;61687;56.232;43.854;2023-05-25T13:35:05;100542.03;;;43.53;18.02
73453;BME280;61687;56.232;43.854;2023-05-25T13:37:32;100541.47;;;43.37;17.31
73453;BME280;61687;56.232;43.854;2023-05-25T13:39:59;100536.34;;;43.00;17.44
73453;BME280;61687;56.232;43.854;2023-05-25T13:42:26;100530.16;;;42.86;17.68
73453;BME280;61687;56.232;43.854;2023-05-25T13:44:52;100527.88;;;42.67;18.14
73453;BME280;61687;56.232;43.854;2023-05-25T13:47:18;100528.91;;;42.18;18.48
73453;BME280;61687;56.232;43.854;2023-05-25T13:49:44;100529.72;;;42.11;18.49
73453;BME280;61687;56.232;43.854;2023-05-25T13:52:10;100533.34;;;41.86;18.67
73453;BME280;61687;56.232;43.854;2023-05-25T13:54:36;100534.22;;;41.71;18.63
73453;BME280;61687;56.232;43.854;2023-05-25T13:57:02;100526.94;;;41.70;18.44
73453;BME280;61687;56.232;43.854;2023-05-25T13:59:28;100523.78;;;41.84;18.58
73453;BME280;61687;56.232;43.854;2023-05-25T14:01:54;100516.63;;;42.18;18.68
73453;BME280;61687;56.232;43.854;2023-05-25T14:04:21;100526.53;;;41.99;18.82
73453;BME280;61687;56.232;43.854;2023-05-25T14:06:47;100516.44;;;40.60;20.37
73453;BME280;61687;56.232;43.854;2023-05-25T14:09:13;100511.22;;;39.57;21.26
73453;BME280;61687;56.232;43.854;2023-05-25T14:11:39;100526.50;;;38.71;21.78
73453;BME280;61687;56.232;43.854;2023-05-25T14:14:05;100522.31;;;37.79;23.55
73453;BME280;61687;56.232;43.854;2023-05-25T14:16:34;100515.56;;;37.20;23.27
73453;BME280;61687;56.232;43.854;2023-05-25T14:19:01;100511.03;;;36.44;24.02
73453;BME280;61687;56.232;43.854;2023-05-25T14:21:28;100511.31;;;35.94;25.04
73453;BME280;61687;56.232;43.854;2023-05-25T14:23:57;100514.53;;;35.72;26.14
73453;BME280;61687;56.232;43.854;2023-05-25T14:26:24;100498.34;;;35.80;25.81
73453;BME280;61687;56.232;43.854;2023-05-25T14:28:52;100498.78;;;35.51;26.34
73453;BME280;61687;56.232;43.854;2023-05-25T14:31:18;100499.44;;;35.38;26.72
73453;BME280;61687;56.232;43.854;2023-05-25T14:33:44;100501.81;;;35.15;28.09
73453;BME280;61687;56.232;43.854;2023-05-25T14:36:11;100493.59;;;34.87;27.37
73453;BME280;61687;56.232;43.854;2023-05-25T14:38:36;100499.97;;;34.49;28.10
73453;BME280;61687;56.232;43.854;2023-05-25T14:41:03;100488.13;;;34.14;28.42
73453;BME280;61687;56.232;43.854;2023-05-25T14:43:29;100485.75;;;33.82;29.60
73453;BME280;61687;56.232;43.854;2023-05-25T14:45:56;100485.66;;;33.57;29.91
73453;BME280;61687;56.232;43.854;2023-05-25T14:48:22;100482.91;;;33.46;30.09
73453;BME280;61687;56.232;43.854;2023-05-25T14:50:51;100475.19;;;33.35;30.25
73453;BME280;61687;56.232;43.854;2023-05-25T14:53:18;100475.78;;;33.22;30.75
73453;BME280;61687;56.232;43.854;2023-05-25T14:55:44;100474.78;;;33.14;30.50
73453;BME280;61687;56.232;43.854;2023-05-25T14:58:10;100474.56;;;33.00;30.82
73453;BME280;61687;56.232;43.854;2023-05-25T15:00:36;100470.72;;;32.86;31.76
73453;BME280;61687;56.232;43.854;2023-05-25T15:03:03;100467.41;;;32.82;31.48
73453;BME280;61687;56.232;43.854;2023-05-25T15:05:29;100468.50;;;32.62;32.40
73453;BME280;61687;56.232;43.854;2023-05-25T15:07:55;100464.91;;;32.55;31.31
73453;BME280;61687;56.232;43.854;2023-05-25T15:10:21;100455.88;;;32.46;31.26
73453;BME280;61687;56.232;43.854;2023-05-25T15:12:47;100456.69;;;32.29;31.64
73453;BME280;61687;56.232;43.854;2023-05-25T15:15:13;100456.19;;;32.19;32.50
73453;BME280;61687;56.232;43.854;2023-05-25T15:17:40;100452.06;;;32.09;32.95
73453;BME280;61687;56.232;43.854;2023-05-25T15:20:07;100442.53;;;31.95;32.86
73453;BME280;61687;56.232;43.854;2023-05-25T15:22:33;100445.38;;;31.83;33.92
73453;BME280;61687;56.232;43.854;2023-05-25T15:24:59;100439.16;;;31.74;33.49
73453;BME280;61687;56.232;43.854;2023-05-25T15:27:25;100434.75;;;31.61;33.56
73453;BME280;61687;56.232;43.854;2023-05-25T15:29:51;100430.09;;;31.47;33.91
73453;BME280;61687;56.232;43.854;2023-05-25T15:32:17;100427.53;;;31.37;34.24
73453;BME280;61687;56.232;43.854;2023-05-25T15:34:43;100426.97;;;31.22;34.54
73453;BME280;61687;56.232;43.854;2023-05-25T15:37:10;100431.56;;;31.13;36.15
73453;BME280;61687;56.232;43.854;2023-05-25T15:39:36;100427.94;;;31.02;36.67
73453;BME280;61687;56.232;43.854;2023-05-25T15:42:02;100441.25;;;30.90;35.59
73453;BME280;61687;56.232;43.854;2023-05-25T15:44:28;100442.16;;;30.64;36.55
73453;BME280;61687;56.232;43.854;2023-05-25T15:46:55;100442.28;;;30.49;36.16
73453;BME280;61687;56.232;43.854;2023-05-25T15:49:21;100441.44;;;30.37;36.10
73453;BME280;61687;56.232;43.854;2023-05-25T15:51:47;100435.75;;;30.25;36.50
73453;BME280;61687;56.232;43.854;2023-05-25T15:54:13;100437.97;;;30.16;36.54
73453;BME280;61687;56.232;43.854;2023-05-25T15:56:39;100437.66;;;30.08;36.76
73453;BME280;61687;56.232;43.854;2023-05-25T15:59:05;100438.31;;;29.97;37.19
73453;BME280;61687;56.232;43.854;2023-05-25T16:01:32;100454.94;;;29.89;37.20
73453;BME280;61687;56.232;43.854;2023-05-25T16:03:59;100458.72;;;29.80;37.76
73453;BME280;61687;56.232;43.854;2023-05-25T16:06:26;100453.06;;;29.54;37.04
73453;BME280;61687;56.232;43.854;2023-05-25T16:08:52;100452.59;;;29.35;37.75
73453;BME280;61687;56.232;43.854;2023-05-25T16:11:18;100454.53;;;29.23;37.41
73453;BME280;61687;56.232;43.854;2023-05-25T16:13:44;100454.03;;;29.04;37.19
73453;BME280;61687;56.232;43.854;2023-05-25T16:16:10;100446.06;;;28.81;37.48
73453;BME280;61687;56.232;43.854;2023-05-25T16:18:36;100436.41;;;28.52;37.77
73453;BME280;61687;56.232;43.854;2023-05-25T16:21:02;100438.81;;;28.39;38.51
73453;BME280;61687;56.232;43.854;2023-05-25T16:23:28;100431.44;;;28.26;37.21
73453;BME280;61687;56.232;43.854;2023-05-25T16:25:54;100434.84;;;28.16;37.69
73453;BME280;61687;56.232;43.854;2023-05-25T16:28:20;100435.25;;;28.08;37.32
73453;BME280;61687;56.232;43.854;2023-05-25T16:30:46;100438.66;;;27.97;37.98
73453;BME280;61687;56.232;43.854;2023-05-25T16:33:12;100434.38;;;27.87;38.71
73453;BME280;61687;56.232;43.854;2023-05-25T16:35:38;100429.31;;;27.76;39.23
73453;BME280;61687;56.232;43.854;2023-05-25T16:38:04;100426.50;;;27.61;39.16
73453;BME280;61687;56.232;43.854;2023-05-25T16:40:30;100417.06;;;27.49;39.52
73453;BME280;61687;56.232;43.854;2023-05-25T16:42:58;100416.53;;;27.36;39.80
73453;BME280;61687;56.232;43.854;2023-05-25T16:45:24;100414.28;;;27.25;40.38
73453;BME280;61687;56.232;43.854;2023-05-25T16:47:50;100413.91;;;27.17;40.69
73453;BME280;61687;56.232;43.854;2023-05-25T16:50:16;100415.25;;;27.07;40.83
73453;BME280;61687;56.232;43.854;2023-05-25T16:52:43;100406.09;;;26.97;41.25
73453;BME280;61687;56.232;43.854;2023-05-25T16:55:09;100403.38;;;26.88;41.67
73453;BME280;61687;56.232;43.854;2023-05-25T16:57:35;100400.88;;;26.80;41.84
73453;BME280;61687;56.232;43.854;2023-05-25T17:00:01;100403.25;;;26.72;43.09
73453;BME280;61687;56.232;43.854;2023-05-25T17:02:31;100417.22;;;26.67;43.64
73453;BME280;61687;56.232;43.854;2023-05-25T17:04:57;100406.31;;;26.60;43.06
73453;BME280;61687;56.232;43.854;2023-05-25T17:07:23;100409.47;;;26.52;44.44
73453;BME280;61687;56.232;43.854;2023-05-25T17:09:49;100418.31;;;26.36;46.95
73453;BME280;61687;56.232;43.854;2023-05-25T17:12:15;100420.56;;;26.13;49.43
73453;BME280;61687;56.232;43.854;2023-05-25T17:14:41;100439.81;;;25.86;50.68
73453;BME280;61687;56.232;43.854;2023-05-25T17:17:07;100447.50;;;25.67;49.46
73453;BME280;61687;56.232;43.854;2023-05-25T17:19:33;100465.16;;;25.49;49.35
73453;BME280;61687;56.232;43.854;2023-05-25T17:21:59;100463.25;;;25.37;48.66
73453;BME280;61687;56.232;43.854;2023-05-25T17:24:25;100465.59;;;25.29;49.01
73453;BME280;61687;56.232;43.854;2023-05-25T17:26:51;100477.25;;;25.18;48.41
73453;BME280;61687;56.232;43.854;2023-05-25T17:29:17;100491.59;;;25.11;48.75
73453;BME280;61687;56.232;43.854;2023-05-25T17:31:43;100480.97;;;24.96;48.57
73453;BME280;61687;56.232;43.854;2023-05-25T17:34:08;100488.91;;;24.89;47.41
73453;BME280;61687;56.232;43.854;2023-05-25T17:36:34;100485.59;;;24.81;47.69
73453;BME280;61687;56.232;43.854;2023-05-25T17:39:02;100483.81;;;24.65;48.23
73453;BME280;61687;56.232;43.854;2023-05-25T17:41:28;100475.81;;;24.44;47.84
73453;BME280;61687;56.232;43.854;2023-05-25T17:43:55;100480.53;;;24.25;48.38
73453;BME280;61687;56.232;43.854;2023-05-25T17:46:21;100473.66;;;24.17;47.92
73453;BME280;61687;56.232;43.854;2023-05-25T17:48:47;100480.13;;;24.05;48.04
73453;BME280;61687;56.232;43.854;2023-05-25T17:51:13;100480.75;;;23.86;48.87
73453;BME280;61687;56.232;43.854;2023-05-25T17:53:39;100486.16;;;23.81;48.03
73453;BME280;61687;56.232;43.854;2023-05-25T17:56:05;100486.44;;;23.73;47.87
73453;BME280;61687;56.232;43.854;2023-05-25T17:58:31;100490.72;;;23.65;47.30
73453;BME280;61687;56.232;43.854;2023-05-25T18:00:56;100493.66;;;23.62;47.37
73453;BME280;61687;56.232;43.854;2023-05-25T18:03:22;100499.09;;;23.65;46.89
73453;BME280;61687;56.232;43.854;2023-05-25T18:05:50;100496.06;;;23.72;46.25
73453;BME280;61687;56.232;43.854;2023-05-25T18:08:16;100504.50;;;23.82;46.15
73453;BME280;61687;56.232;43.854;2023-05-25T18:10:42;100505.50;;;23.88;46.28
73453;BME280;61687;56.232;43.854;2023-05-25T18:13:08;100489.16;;;23.86;46.64
73453;BME280;61687;56.232;43.854;2023-05-25T18:15:34;100507.06;;;23.89;46.78
73453;BME280;61687;56.232;43.854;2023-05-25T18:17:59;100498.66;;;23.89;47.28
73453;BME280;61687;56.232;43.854;2023-05-25T18:20:28;100503.59;;;23.85;47.74
73453;BME280;61687;56.232;43.854;2023-05-25T18:22:54;100505.75;;;23.81;48.33
73453;BME280;61687;56.232;43.854;2023-05-25T18:25:20;100489.22;;;23.73;48.38
73453;BME280;61687;56.232;43.854;2023-05-25T18:27:46;100480.75;;;23.64;48.83
73453;BME280;61687;56.232;43.854;2023-05-25T18:30:12;100480.09;;;23.60;49.08
73453;BME280;61687;56.232;43.854;2023-05-25T18:32:38;100478.88;;;23.61;48.94
73453;BME280;61687;56.232;43.854;2023-05-25T18:35:05;100483.16;;;23.53;49.63
73453;BME280;61687;56.232;43.854;2023-05-25T18:37:31;100482.38;;;23.52;50.11
73453;BME280;61687;56.232;43.854;2023-05-25T18:40:03;100491.22;;;23.51;49.83
73453;BME280;61687;56.232;43.854;2023-05-25T18:42:30;100484.53;;;23.48;49.91
73453;BME280;61687;56.232;43.854;2023-05-25T18:44:57;100493.03;;;23.44;50.40
73453;BME280;61687;56.232;43.854;2023-05-25T18:47:25;100492.38;;;23.40;50.76
73453;BME280;61687;56.232;43.854;2023-05-25T18:49:51;100488.16;;;23.36;50.91
73453;BME280;61687;56.232;43.854;2023-05-25T18:52:17;100484.56;;;23.35;50.84
73453;BME280;61687;56.232;43.854;2023-05-25T18:54:43;100488.28;;;23.32;51.33
73453;BME280;61687;56.232;43.854;2023-05-25T18:57:09;100497.56;;;23.29;51.58
73453;BME280;61687;56.232;43.854;2023-05-25T18:59:35;100495.22;;;23.27;51.84
73453;BME280;61687;56.232;43.854;2023-05-25T19:02:01;100500.88;;;23.24;52.05
73453;BME280;61687;56.232;43.854;2023-05-25T19:04:27;100502.38;;;23.15;52.16
73453;BME280;61687;56.232;43.854;2023-05-25T19:06:53;100489.63;;;23.14;52.31
73453;BME280;61687;56.232;43.854;2023-05-25T19:09:19;100500.81;;;23.14;52.14
73453;BME280;61687;56.232;43.854;2023-05-25T19:11:45;100498.00;;;23.14;52.12
73453;BME280;61687;56.232;43.854;2023-05-25T19:14:11;100489.19;;;23.16;52.07
73453;BME280;61687;56.232;43.854;2023-05-25T19:16:36;100487.16;;;23.16;52.07
73453;BME280;61687;56.232;43.854;2023-05-25T19:19:02;100501.47;;;23.19;51.93
73453;BME280;61687;56.232;43.854;2023-05-25T19:21:28;100560.75;;;23.26;51.77
73453;BME280;61687;56.232;43.854;2023-05-25T19:23:54;100567.00;;;23.30;51.70
73453;BME280;61687;56.232;43.854;2023-05-25T19:26:22;100554.72;;;23.28;52.37
73453;BME280;61687;56.232;43.854;2023-05-25T19:28:48;100564.88;;;23.22;52.84
73453;BME280;61687;56.232;43.854;2023-05-25T19:31:14;100564.88;;;23.09;53.84
73453;BME280;61687;56.232;43.854;2023-05-25T19:33:40;100571.28;;;22.96;54.20
73453;BME280;61687;56.232;43.854;2023-05-25T19:36:06;100579.22;;;22.85;54.47
73453;BME280;61687;56.232;43.854;2023-05-25T19:38:32;100566.78;;;22.73;54.88
73453;BME280;61687;56.232;43.854;2023-05-25T19:40:59;100552.94;;;22.56;55.71
